createdAt,value
2024-03-26T00:00:01.363Z,5.78
2024-03-26T00:05:00.873Z,5.81
2024-03-26T00:10:00.905Z,5.79
2024-03-26T00:15:00.702Z,5.84
2024-03-26T00:20:00.643Z,5.85
2024-03-26T00:25:00.665Z,5.86
2024-03-26T00:30:00.684Z,5.84
2024-03-26T00:35:00.663Z,5.81
2024-03-26T00:40:00.819Z,5.82
2024-03-26T00:45:00.683Z,5.82
2024-03-26T00:50:00.678Z,5.82
2024-03-26T00:55:00.674Z,5.83
2024-03-26T01:00:01.742Z,5.75
2024-03-26T01:05:00.634Z,5.70
2024-03-26T01:10:00.639Z,5.72
2024-03-26T01:15:01.428Z,5.71
2024-03-26T01:20:00.702Z,5.65
2024-03-26T01:25:00.697Z,5.62
2024-03-26T01:30:00.645Z,5.58
2024-03-26T01:35:00.655Z,5.56
2024-03-26T01:40:00.723Z,5.49
2024-03-26T01:45:01.165Z,5.41
2024-03-26T01:50:04.282Z,5.35
2024-03-26T01:55:01.650Z,5.31
2024-03-26T02:00:02.947Z,5.29
2024-03-26T02:05:00.662Z,5.32
2024-03-26T02:10:01.910Z,5.25
2024-03-26T02:15:00.709Z,5.19
2024-03-26T02:20:01.236Z,5.15
2024-03-26T02:25:00.704Z,5.13
2024-03-26T02:30:00.656Z,5.11
2024-03-26T02:35:00.633Z,5.06
2024-03-26T02:40:00.772Z,5.05
2024-03-26T02:45:00.676Z,5.00
2024-03-26T02:50:00.871Z,4.99
2024-03-26T02:55:00.706Z,5.02
2024-03-26T03:00:01.593Z,4.97
2024-03-26T03:05:00.655Z,4.96
2024-03-26T03:10:00.856Z,5.01
2024-03-26T03:15:00.635Z,4.97
2024-03-26T03:20:00.705Z,4.95
2024-03-26T03:25:00.640Z,4.93
2024-03-26T03:30:00.719Z,4.90
2024-03-26T03:35:00.683Z,4.92
2024-03-26T03:40:00.701Z,4.89
2024-03-26T03:45:00.668Z,4.85
2024-03-26T03:50:00.686Z,4.83
2024-03-26T03:55:00.638Z,4.75
2024-03-26T04:00:01.274Z,4.71
2024-03-26T04:05:00.783Z,4.70
2024-03-26T04:10:01.264Z,4.63
2024-03-26T04:15:00.669Z,4.57
2024-03-26T04:20:00.660Z,4.53
2024-03-26T04:25:00.708Z,4.52
2024-03-26T04:30:00.683Z,4.45
2024-03-26T04:35:00.700Z,4.31
2024-03-26T04:40:00.687Z,4.29
2024-03-26T04:45:00.727Z,4.28
2024-03-26T04:50:00.648Z,4.40
2024-03-26T04:55:00.672Z,4.35
2024-03-26T05:00:01.223Z,4.34
2024-03-26T05:05:00.671Z,4.28
2024-03-26T05:10:01.270Z,4.22
2024-03-26T05:15:01.174Z,4.16
2024-03-26T05:20:00.739Z,4.10
2024-03-26T05:25:00.716Z,4.05
2024-03-26T05:30:00.736Z,4.05
2024-03-26T05:35:00.680Z,4.01
2024-03-26T05:40:00.658Z,3.99
2024-03-26T05:45:00.643Z,4.00
2024-03-26T05:50:00.877Z,3.97
2024-03-26T05:55:00.662Z,4.05
2024-03-26T06:00:01.207Z,4.13
2024-03-26T06:05:00.678Z,4.15
2024-03-26T06:10:00.675Z,4.27
2024-03-26T06:15:00.639Z,4.34
2024-03-26T06:20:00.692Z,4.47
2024-03-26T06:25:00.970Z,4.68
2024-03-26T06:30:01.061Z,4.94
2024-03-26T06:35:00.668Z,5.45
2024-03-26T06:40:00.713Z,5.94
2024-03-26T06:45:00.675Z,6.10
2024-03-26T06:50:00.649Z,6.45
2024-03-26T06:55:00.638Z,6.49
2024-03-26T07:00:01.267Z,6.53
2024-03-26T07:05:00.699Z,6.56
2024-03-26T07:10:01.268Z,6.58
2024-03-26T07:15:00.667Z,6.56
2024-03-26T07:20:00.733Z,6.49
2024-03-26T07:25:00.690Z,6.54
2024-03-26T07:30:00.693Z,6.53
2024-03-26T07:35:00.655Z,6.57
2024-03-26T07:40:00.763Z,6.63
2024-03-26T07:45:00.788Z,6.71
2024-03-26T07:50:00.757Z,6.87
2024-03-26T07:55:01.729Z,6.97
2024-03-26T08:00:01.062Z,7.02
2024-03-26T08:05:00.669Z,7.16
2024-03-26T08:10:00.707Z,7.20
2024-03-26T08:15:00.812Z,7.32
2024-03-26T08:20:00.777Z,7.46
2024-03-26T08:25:00.687Z,7.56
2024-03-26T08:30:00.763Z,7.67
2024-03-26T08:35:00.682Z,7.70
2024-03-26T08:40:02.221Z,7.80
2024-03-26T08:45:00.805Z,7.84
2024-03-26T08:50:02.175Z,7.87
2024-03-26T08:55:00.651Z,7.91
2024-03-26T09:00:02.536Z,8.10
2024-03-26T09:05:00.705Z,8.12
2024-03-26T09:10:00.664Z,8.15
2024-03-26T09:15:00.800Z,8.25
2024-03-26T09:20:00.694Z,8.36
2024-03-26T09:25:00.661Z,8.35
2024-03-26T09:30:01.664Z,8.40
2024-03-26T09:35:00.661Z,8.55
2024-03-26T09:40:00.656Z,8.62
2024-03-26T09:45:05.788Z,8.72
2024-03-26T09:50:02.925Z,8.80
2024-03-26T09:55:01.691Z,8.92
2024-03-26T10:00:01.448Z,8.81
2024-03-26T10:05:02.508Z,8.89
2024-03-26T10:10:01.893Z,8.90
2024-03-26T10:15:00.736Z,8.98
2024-03-26T10:20:01.293Z,9.05
2024-03-26T10:25:00.690Z,9.29
2024-03-26T10:30:00.723Z,9.51
2024-03-26T10:35:03.862Z,9.56
2024-03-26T10:40:06.551Z,9.66
2024-03-26T10:45:01.133Z,9.58
2024-03-26T10:50:00.694Z,9.66
2024-03-26T10:55:00.815Z,9.67
2024-03-26T11:00:06.463Z,9.76
2024-03-26T11:05:00.735Z,9.78
2024-03-26T11:10:07.612Z,9.74
2024-03-26T11:20:00.655Z,10.00
2024-03-26T11:25:03.274Z,10.20
2024-03-26T11:30:01.390Z,10.32
2024-03-26T11:40:01.478Z,10.56
2024-03-26T11:45:03.634Z,10.75
2024-03-26T11:50:01.094Z,10.91
2024-03-26T11:55:01.287Z,10.97
2024-03-26T12:00:01.245Z,11.09
2024-03-26T12:05:00.685Z,11.35
2024-03-26T12:10:01.196Z,11.40
2024-03-26T12:15:03.718Z,11.74
2024-03-26T12:20:00.786Z,11.87
2024-03-26T12:25:05.329Z,11.62
2024-03-26T12:30:01.544Z,11.62
2024-03-26T12:35:00.813Z,11.58
2024-03-26T12:40:00.850Z,11.51
2024-03-26T12:45:00.643Z,11.52
2024-03-26T12:50:03.815Z,11.47
2024-03-26T12:55:00.651Z,11.54
2024-03-26T13:00:01.190Z,11.60
2024-03-26T13:05:00.709Z,11.78
2024-03-26T13:10:00.678Z,12.10
2024-03-26T13:15:00.669Z,12.35
2024-03-26T13:20:00.672Z,12.52
2024-03-26T13:25:00.688Z,12.65
2024-03-26T13:30:00.656Z,12.67
2024-03-26T13:35:00.704Z,12.63
2024-03-26T13:40:00.689Z,12.56
2024-03-26T13:45:00.960Z,12.62
2024-03-26T13:50:00.753Z,12.48
2024-03-26T13:55:01.006Z,12.43
2024-03-26T14:00:01.215Z,12.44
2024-03-26T14:05:00.697Z,12.43
2024-03-26T14:10:00.671Z,12.45
2024-03-26T14:15:00.890Z,12.39
2024-03-26T14:20:00.687Z,12.37
2024-03-26T14:25:00.666Z,12.22
2024-03-26T14:30:00.664Z,12.21
2024-03-26T14:35:00.772Z,12.20
2024-03-26T14:40:00.700Z,12.14
2024-03-26T14:45:00.664Z,12.08
2024-03-26T14:50:00.687Z,12.11
2024-03-26T14:55:00.694Z,12.04
2024-03-26T15:00:01.322Z,12.03
2024-03-26T15:05:00.703Z,12.03
2024-03-26T15:10:00.988Z,12.10
2024-03-26T15:15:01.575Z,12.13
2024-03-26T15:20:01.015Z,12.16
2024-03-26T15:25:00.658Z,12.30
2024-03-26T15:30:00.888Z,12.32
2024-03-26T15:35:00.636Z,12.30
2024-03-26T15:40:00.795Z,12.27
2024-03-26T15:45:00.700Z,12.30
2024-03-26T15:50:00.641Z,12.30
2024-03-26T15:55:00.735Z,12.32
2024-03-26T16:00:01.133Z,12.36
2024-03-26T16:05:00.703Z,12.38
2024-03-26T16:10:14.502Z,12.32
2024-03-26T16:15:00.722Z,12.28
2024-03-26T16:20:00.880Z,12.32
2024-03-26T16:25:00.685Z,12.29
2024-03-26T16:30:00.738Z,12.18
2024-03-26T16:35:00.783Z,12.23
2024-03-26T16:40:00.686Z,12.34
2024-03-26T16:45:02.959Z,12.48
2024-03-26T16:50:00.786Z,12.60
2024-03-26T16:55:00.722Z,12.60
2024-03-26T17:00:02.620Z,12.57
2024-03-26T17:05:01.182Z,12.51
2024-03-26T17:10:00.879Z,12.36
2024-03-26T17:15:01.143Z,12.11
2024-03-26T17:20:00.624Z,11.89
2024-03-26T17:25:00.675Z,11.71
2024-03-26T17:30:00.764Z,11.55
2024-03-26T17:35:00.705Z,11.40
2024-03-26T17:40:00.666Z,11.35
2024-03-26T17:45:01.388Z,11.28
2024-03-26T17:50:01.103Z,11.18
2024-03-26T17:55:00.754Z,11.11
2024-03-26T18:00:01.163Z,11.08
2024-03-26T18:05:00.676Z,11.08
2024-03-26T18:10:01.737Z,11.02
2024-03-26T18:15:01.044Z,10.93
2024-03-26T18:20:00.732Z,10.89
2024-03-26T18:25:00.655Z,10.91
2024-03-26T18:30:00.770Z,10.90
2024-03-26T18:35:00.682Z,10.86
2024-03-26T18:40:00.780Z,10.84
2024-03-26T18:45:00.716Z,10.81
2024-03-26T18:50:00.715Z,10.82
2024-03-26T18:55:00.651Z,10.81
2024-03-26T19:00:01.306Z,10.77
2024-03-26T19:05:00.674Z,10.78
2024-03-26T19:10:00.760Z,10.76
2024-03-26T19:15:00.688Z,10.74
2024-03-26T19:20:00.973Z,10.69
2024-03-26T19:25:00.701Z,10.69
2024-03-26T19:30:00.685Z,10.68
2024-03-26T19:35:00.692Z,10.65
2024-03-26T19:40:00.710Z,10.65
2024-03-26T19:45:00.708Z,10.70
2024-03-26T19:50:00.762Z,10.73
2024-03-26T19:55:00.700Z,10.73
2024-03-26T20:00:02.734Z,10.75
2024-03-26T20:05:00.639Z,10.75
2024-03-26T20:10:00.687Z,10.73
2024-03-26T20:15:00.729Z,10.75
2024-03-26T20:20:00.620Z,10.73
2024-03-26T20:25:00.654Z,10.74
2024-03-26T20:30:01.048Z,10.74
2024-03-26T20:35:00.636Z,10.75
2024-03-26T20:40:00.647Z,10.73
2024-03-26T20:45:00.698Z,10.74
2024-03-26T20:50:04.573Z,10.76
2024-03-26T20:55:00.702Z,10.73
2024-03-26T21:00:01.351Z,10.78
2024-03-26T21:05:00.634Z,10.87
2024-03-26T21:10:01.350Z,10.90
2024-03-26T21:15:09.921Z,10.98
2024-03-26T21:20:00.686Z,11.00
2024-03-26T21:25:00.679Z,10.97
2024-03-26T21:30:00.891Z,10.97
2024-03-26T21:35:00.715Z,10.92
2024-03-26T21:40:00.674Z,10.88
2024-03-26T21:45:00.703Z,10.82
2024-03-26T21:50:01.114Z,10.79
2024-03-26T21:55:00.718Z,10.75
2024-03-26T22:00:02.228Z,10.68
2024-03-26T22:05:00.730Z,10.67
2024-03-26T22:10:00.703Z,10.78
2024-03-26T22:15:00.669Z,10.87
2024-03-26T22:20:00.762Z,11.03
2024-03-26T22:25:00.708Z,11.12
2024-03-26T22:30:00.761Z,11.19
2024-03-26T22:35:00.686Z,11.17
2024-03-26T22:40:00.724Z,11.15
2024-03-26T22:45:00.772Z,11.09
2024-03-26T22:50:00.789Z,11.00
2024-03-26T22:55:00.657Z,10.90
2024-03-26T23:00:01.292Z,10.81
2024-03-26T23:05:00.674Z,10.75
2024-03-26T23:10:00.816Z,10.70
2024-03-26T23:15:00.727Z,10.68
2024-03-26T23:20:00.669Z,10.67
2024-03-26T23:25:01.101Z,10.72
2024-03-26T23:30:00.798Z,10.78
2024-03-26T23:35:00.895Z,10.84
2024-03-26T23:40:04.390Z,10.85
2024-03-26T23:45:01.560Z,10.89
2024-03-26T23:50:01.167Z,10.91
2024-03-26T23:55:01.051Z,10.88
